createdAt,value
2019-02-28T00:02:13.318Z,35.07
2019-02-28T00:04:43.649Z,35.33
2019-02-28T00:07:17.564Z,35.20
2019-02-28T00:09:45.819Z,34.23
2019-02-28T00:12:16.205Z,34.93
2019-02-28T00:14:47.026Z,35.80
2019-02-28T00:17:17.426Z,35.10
2019-02-28T00:19:47.801Z,35.33
2019-02-28T00:22:18.495Z,35.67
2019-02-28T00:24:48.890Z,36.57
2019-02-28T00:27:21.936Z,34.63
2019-02-28T00:29:51.606Z,36.97
2019-02-28T00:32:24.786Z,37.33
2019-02-28T00:34:53.744Z,36.40
2019-02-28T00:37:25.675Z,35.43
2019-02-28T00:39:55.925Z,34.70
2019-02-28T00:42:26.113Z,34.53
2019-02-28T00:44:56.445Z,33.57
2019-02-28T00:47:26.757Z,33.80
2019-02-28T00:49:56.995Z,34.90
2019-02-28T00:52:27.252Z,33.60
2019-02-28T00:54:57.927Z,33.23
2019-02-28T00:57:28.617Z,33.87
2019-02-28T00:59:58.890Z,34.63
2019-02-28T01:02:29.107Z,32.70
2019-02-28T01:05:04.317Z,33.37
2019-02-28T01:07:33.156Z,32.87
2019-02-28T01:10:04.618Z,33.10
2019-02-28T01:12:35.788Z,32.07
2019-02-28T01:15:07.132Z,32.07
2019-02-28T01:17:38.899Z,32.90
2019-02-28T01:20:15.008Z,32.97
2019-02-28T01:22:42.126Z,33.73
2019-02-28T01:25:13.164Z,32.60
2019-02-28T01:27:43.804Z,33.67
2019-02-28T01:30:14.612Z,33.70
2019-02-28T01:32:49.739Z,34.70
2019-02-28T01:35:17.148Z,33.07
2019-02-28T01:37:47.815Z,34.53
2019-02-28T01:40:18.044Z,34.67
2019-02-28T01:42:53.952Z,36.07
2019-02-28T01:45:20.501Z,34.50
2019-02-28T01:47:53.804Z,34.97
2019-02-28T01:50:24.256Z,35.90
2019-02-28T01:52:54.514Z,35.13
2019-02-28T01:55:24.754Z,36.20
2019-02-28T01:57:54.980Z,37.83
2019-02-28T02:00:26.893Z,36.63
2019-02-28T02:02:57.138Z,35.77
2019-02-28T02:05:27.754Z,38.67
2019-02-28T02:07:57.960Z,38.43
2019-02-28T02:10:28.587Z,37.50
2019-02-28T02:12:58.754Z,38.07
2019-02-28T02:15:29.334Z,36.87
2019-02-28T02:17:59.602Z,37.50
2019-02-28T02:20:30.305Z,36.77
2019-02-28T02:23:00.576Z,37.80
2019-02-28T02:25:31.149Z,36.20
2019-02-28T02:28:01.441Z,36.23
2019-02-28T02:30:31.609Z,35.63
2019-02-28T02:33:02.247Z,36.43
2019-02-28T02:35:32.495Z,35.83
2019-02-28T02:38:04.602Z,35.60
2019-02-28T02:40:35.085Z,34.17
2019-02-28T02:43:05.293Z,34.63
2019-02-28T02:45:41.677Z,34.33
2019-02-28T02:48:07.544Z,35.20
2019-02-28T02:50:37.820Z,33.43
2019-02-28T02:53:08.061Z,34.40
2019-02-28T02:55:38.354Z,33.67
2019-02-28T02:58:08.629Z,34.13
2019-02-28T03:00:39.201Z,33.70
2019-02-28T03:03:09.812Z,34.23
2019-02-28T03:05:40.083Z,33.13
2019-02-28T03:08:10.415Z,33.30
2019-02-28T03:10:40.923Z,33.43
2019-02-28T03:13:11.492Z,34.07
2019-02-28T03:15:42.158Z,34.37
2019-02-28T03:18:12.459Z,32.80
2019-02-28T03:20:42.768Z,32.10
2019-02-28T03:23:13.702Z,33.47
2019-02-28T03:25:43.964Z,33.03
2019-02-28T03:28:14.225Z,33.53
2019-02-28T03:30:44.805Z,34.43
2019-02-28T03:33:23.423Z,34.20
2019-02-28T03:35:46.917Z,34.60
2019-02-28T03:38:17.228Z,31.30
2019-02-28T03:40:47.487Z,33.07
2019-02-28T03:43:17.712Z,31.47
2019-02-28T03:45:47.979Z,31.60
2019-02-28T03:48:18.676Z,32.20
2019-02-28T03:50:48.935Z,34.50
2019-02-28T03:53:21.108Z,33.53
2019-02-28T03:55:51.866Z,31.80
2019-02-28T03:58:22.097Z,35.50
2019-02-28T04:00:53.153Z,33.07
2019-02-28T04:03:23.420Z,32.40
2019-02-28T04:05:53.625Z,32.10
2019-02-28T04:08:29.340Z,32.43
2019-02-28T04:10:56.170Z,33.13
2019-02-28T04:13:26.453Z,35.00
2019-02-28T04:16:08.389Z,33.73
2019-02-28T04:18:28.611Z,34.13
2019-02-28T04:20:58.889Z,31.80
2019-02-28T04:23:35.496Z,33.57
2019-02-28T04:26:01.364Z,31.93
2019-02-28T04:28:31.573Z,33.23
2019-02-28T04:31:02.150Z,32.50
2019-02-28T04:33:37.643Z,32.40
2019-02-28T04:36:04.619Z,33.67
2019-02-28T04:38:34.864Z,33.23
2019-02-28T04:41:05.138Z,35.40
2019-02-28T04:43:35.389Z,33.87
2019-02-28T04:46:05.945Z,34.23
2019-02-28T04:48:36.157Z,36.40
2019-02-28T04:51:06.793Z,35.50
2019-02-28T04:53:36.993Z,35.30
2019-02-28T04:56:11.037Z,34.77
2019-02-28T04:58:39.191Z,36.20
2019-02-28T05:01:12.276Z,38.97
2019-02-28T05:03:41.304Z,37.60
2019-02-28T05:06:11.541Z,36.60
2019-02-28T05:08:41.769Z,36.00
2019-02-28T05:11:12.681Z,35.57
2019-02-28T05:13:48.207Z,35.70
2019-02-28T05:16:15.024Z,36.40
2019-02-28T05:18:45.528Z,36.00
2019-02-28T05:21:16.596Z,36.80
2019-02-28T05:23:48.055Z,37.90
2019-02-28T05:26:18.343Z,38.27
2019-02-28T05:28:48.920Z,38.83
2019-02-28T05:31:19.134Z,37.07
2019-02-28T05:33:49.753Z,36.93
2019-02-28T05:36:20.039Z,38.47
2019-02-28T05:38:50.271Z,38.37
2019-02-28T05:41:20.581Z,36.67
2019-02-28T05:43:50.886Z,37.93
2019-02-28T05:46:23.814Z,36.63
2019-02-28T05:48:53.072Z,36.93
2019-02-28T05:51:24.907Z,36.70
2019-02-28T05:53:55.211Z,39.10
2019-02-28T05:56:25.522Z,40.67
2019-02-28T05:58:56.168Z,38.07
2019-02-28T06:01:26.430Z,37.23
2019-02-28T06:03:57.239Z,39.10
2019-02-28T06:06:27.494Z,38.57
2019-02-28T06:08:57.756Z,38.90
2019-02-28T06:11:31.402Z,38.70
2019-02-28T06:14:00.240Z,37.90
2019-02-28T06:16:30.473Z,37.13
2019-02-28T06:19:00.852Z,38.60
2019-02-28T06:21:33.348Z,38.03
2019-02-28T06:24:04.162Z,40.20
2019-02-28T06:26:34.581Z,39.73
2019-02-28T06:29:05.801Z,38.33
2019-02-28T06:31:36.460Z,35.77
2019-02-28T06:34:08.614Z,39.07
2019-02-28T06:36:39.211Z,39.13
2019-02-28T06:39:09.840Z,38.40
2019-02-28T06:41:40.813Z,40.03
2019-02-28T06:44:11.290Z,39.87
2019-02-28T06:46:42.033Z,37.43
2019-02-28T06:49:12.697Z,39.57
2019-02-28T06:51:43.062Z,37.27
2019-02-28T06:54:13.385Z,35.90
2019-02-28T06:56:43.723Z,38.33
2019-02-28T06:59:14.109Z,37.07
2019-02-28T07:01:44.831Z,36.03
2019-02-28T07:04:15.331Z,33.87
2019-02-28T07:06:45.687Z,35.53
2019-02-28T07:09:16.599Z,35.57
2019-02-28T07:11:47.031Z,36.23
2019-02-28T07:14:17.359Z,34.87
2019-02-28T07:16:48.061Z,35.97
2019-02-28T07:19:18.357Z,35.10
2019-02-28T07:21:48.639Z,34.50
2019-02-28T07:24:19.235Z,34.80
2019-02-28T07:26:52.318Z,34.17
2019-02-28T07:29:21.829Z,34.00
2019-02-28T07:31:52.161Z,32.30
2019-02-28T07:34:23.981Z,35.67
2019-02-28T07:36:54.391Z,34.60
2019-02-28T07:39:24.674Z,35.30
2019-02-28T07:41:54.966Z,34.90
2019-02-28T07:44:25.234Z,34.83
2019-02-28T07:46:55.957Z,34.67
2019-02-28T07:49:26.554Z,35.17
2019-02-28T07:51:57.207Z,35.40
2019-02-28T07:54:28.562Z,35.53
2019-02-28T07:56:58.932Z,34.40
2019-02-28T07:59:29.682Z,35.60
2019-02-28T08:02:02.966Z,37.37
2019-02-28T08:04:32.040Z,35.83
2019-02-28T08:07:02.373Z,34.93
2019-02-28T08:09:32.840Z,38.03
2019-02-28T08:12:03.575Z,37.90
2019-02-28T08:14:34.099Z,39.23
2019-02-28T08:17:05.437Z,38.90
2019-02-28T08:19:37.042Z,44.47
2019-02-28T08:22:07.486Z,44.50
2019-02-28T08:24:37.821Z,47.40
2019-02-28T08:27:08.451Z,51.17
2019-02-28T08:29:38.727Z,51.87
2019-02-28T08:32:09.414Z,54.53
2019-02-28T08:34:40.109Z,54.20
2019-02-28T08:37:11.154Z,53.70
2019-02-28T08:39:42.166Z,55.80
2019-02-28T08:42:12.960Z,56.30
2019-02-28T08:44:43.348Z,57.53
2019-02-28T08:47:13.730Z,58.43
2019-02-28T08:49:45.513Z,58.67
2019-02-28T08:52:15.980Z,60.30
2019-02-28T08:54:46.398Z,58.17
2019-02-28T08:57:16.784Z,58.40
2019-02-28T08:59:47.638Z,57.73
2019-02-28T09:02:18.988Z,55.57
2019-02-28T09:04:51.024Z,59.67
2019-02-28T09:07:21.582Z,54.20
2019-02-28T09:09:52.003Z,52.47
2019-02-28T09:12:22.417Z,50.17
2019-02-28T09:14:55.344Z,47.97
2019-02-28T09:17:25.131Z,44.53
2019-02-28T09:19:55.638Z,41.20
2019-02-28T09:22:27.449Z,36.77
2019-02-28T09:24:58.084Z,36.53
2019-02-28T09:27:28.672Z,35.93
2019-02-28T09:29:59.394Z,33.20
2019-02-28T09:32:30.065Z,33.00
2019-02-28T09:35:02.514Z,31.07
2019-02-28T09:37:33.044Z,30.47
2019-02-28T09:40:04.079Z,27.53
2019-02-28T09:42:34.494Z,28.10
2019-02-28T09:45:07.621Z,26.27
2019-02-28T09:47:37.109Z,24.77
2019-02-28T09:50:08.975Z,25.27
2019-02-28T09:52:41.703Z,23.90
2019-02-28T09:55:11.742Z,21.63
2019-02-28T09:57:42.609Z,22.70
2019-02-28T10:00:15.761Z,22.23
2019-02-28T10:02:46.721Z,19.47
2019-02-28T10:05:17.079Z,19.60
2019-02-28T10:07:47.767Z,19.30
2019-02-28T10:10:20.867Z,18.93
2019-02-28T10:12:51.993Z,17.60
2019-02-28T10:15:22.983Z,18.03
2019-02-28T10:17:53.610Z,18.93
2019-02-28T10:20:27.093Z,15.90
2019-02-28T10:22:57.960Z,14.47
2019-02-28T10:25:28.666Z,12.33
2019-02-28T10:28:02.582Z,11.50
2019-02-28T10:30:32.705Z,10.10
2019-02-28T10:33:06.095Z,10.00
2019-02-28T10:35:41.188Z,8.97
2019-02-28T10:38:16.899Z,8.37
2019-02-28T10:40:49.283Z,9.40
2019-02-28T10:43:20.878Z,9.13
2019-02-28T10:45:51.777Z,9.77
2019-02-28T10:48:22.242Z,9.70
2019-02-28T10:50:52.660Z,10.07
2019-02-28T10:53:23.075Z,10.80
2019-02-28T10:55:54.351Z,9.93
2019-02-28T10:58:25.666Z,11.00
2019-02-28T11:00:56.093Z,11.20
2019-02-28T11:03:31.813Z,12.10
2019-02-28T11:05:58.808Z,12.90
2019-02-28T11:08:29.454Z,13.80
2019-02-28T11:11:00.894Z,14.90
2019-02-28T11:13:31.999Z,11.73
2019-02-28T11:16:03.661Z,7.80
2019-02-28T11:18:34.092Z,7.03
2019-02-28T11:21:04.898Z,5.57
2019-02-28T11:23:35.277Z,5.13
2019-02-28T11:26:06.467Z,5.57
2019-02-28T11:28:37.983Z,5.23
2019-02-28T11:31:08.374Z,6.00
2019-02-28T11:33:39.691Z,4.90
2019-02-28T11:36:11.220Z,5.07
2019-02-28T11:38:41.648Z,4.30
2019-02-28T11:41:12.056Z,4.67
2019-02-28T11:43:42.883Z,4.50
2019-02-28T11:46:13.315Z,4.40
2019-02-28T11:48:43.716Z,4.70
2019-02-28T11:51:14.645Z,5.00
2019-02-28T11:53:46.505Z,4.90
2019-02-28T11:56:16.916Z,5.30
2019-02-28T11:58:51.309Z,5.27
2019-02-28T12:01:19.284Z,5.17
2019-02-28T12:03:49.677Z,4.60
2019-02-28T12:06:22.408Z,4.43
2019-02-28T12:08:52.034Z,5.27
2019-02-28T12:11:22.599Z,4.90
2019-02-28T12:13:55.206Z,5.10
2019-02-28T12:16:25.857Z,4.20
2019-02-28T12:18:56.237Z,4.77
2019-02-28T12:21:26.647Z,4.57
2019-02-28T12:23:58.351Z,4.60
2019-02-28T12:26:29.757Z,4.63
2019-02-28T12:29:00.502Z,4.60
2019-02-28T12:31:32.121Z,4.30
2019-02-28T12:34:04.246Z,4.50
2019-02-28T12:36:34.591Z,4.00
2019-02-28T12:39:08.674Z,4.33
2019-02-28T12:41:40.160Z,3.90
2019-02-28T12:44:15.162Z,4.30
2019-02-28T12:46:44.557Z,4.43
2019-02-28T12:49:15.031Z,3.93
2019-02-28T12:51:52.276Z,4.30
2019-02-28T12:54:23.151Z,4.07
2019-02-28T12:56:53.638Z,4.50
2019-02-28T12:59:23.973Z,4.27
2019-02-28T13:01:54.294Z,3.93
2019-02-28T13:04:25.713Z,3.70
2019-02-28T13:06:58.833Z,3.90
2019-02-28T13:09:30.135Z,3.50
2019-02-28T13:12:00.537Z,3.70
2019-02-28T13:14:30.959Z,3.63
2019-02-28T13:17:01.456Z,4.00
2019-02-28T13:19:32.599Z,3.90
2019-02-28T13:22:03.733Z,3.90
2019-02-28T13:24:34.818Z,3.77
2019-02-28T13:27:09.748Z,4.30
2019-02-28T13:29:37.992Z,4.00
2019-02-28T13:32:08.370Z,3.80
2019-02-28T13:34:39.114Z,3.40
2019-02-28T13:37:09.891Z,3.47
2019-02-28T13:39:40.784Z,3.63
2019-02-28T13:42:11.229Z,3.05
2019-02-28T13:44:41.848Z,3.10
2019-02-28T13:47:12.763Z,2.77
2019-02-28T13:49:43.218Z,3.23
2019-02-28T13:52:20.356Z,3.20
2019-02-28T13:54:48.413Z,2.90
2019-02-28T13:57:18.921Z,3.03
2019-02-28T13:59:49.665Z,2.93
2019-02-28T14:02:20.389Z,3.10
2019-02-28T14:04:51.226Z,3.10
2019-02-28T14:07:21.563Z,3.00
2019-02-28T14:09:56.831Z,3.20
2019-02-28T14:12:24.664Z,2.73
2019-02-28T14:14:55.180Z,3.30
2019-02-28T14:17:25.825Z,3.10
2019-02-28T14:19:56.130Z,3.00
2019-02-28T14:22:26.459Z,2.60
2019-02-28T14:24:56.892Z,2.93
2019-02-28T14:27:27.284Z,2.60
2019-02-28T14:29:58.062Z,2.70
2019-02-28T14:32:28.500Z,2.60
2019-02-28T14:34:59.935Z,2.83
2019-02-28T14:37:31.009Z,3.03
2019-02-28T14:40:02.061Z,3.00
2019-02-28T14:42:32.331Z,3.27
2019-02-28T14:45:03.995Z,2.47
2019-02-28T14:47:34.847Z,2.60
2019-02-28T14:50:06.387Z,2.50
2019-02-28T14:52:39.399Z,1.93
2019-02-28T14:55:10.958Z,2.40
2019-02-28T14:57:42.234Z,2.30
2019-02-28T15:00:25.249Z,3.00
2019-02-28T15:02:59.499Z,2.57
2019-02-28T15:05:28.926Z,2.90
2019-02-28T15:08:00.435Z,3.20
2019-02-28T15:10:34.286Z,3.17
2019-02-28T15:13:04.803Z,2.80
2019-02-28T15:15:36.308Z,3.07
2019-02-28T15:18:10.895Z,3.80
2019-02-28T15:20:39.488Z,3.87
2019-02-28T15:23:09.936Z,3.60
2019-02-28T15:25:40.324Z,3.53
2019-02-28T15:28:13.826Z,3.70
2019-02-28T15:30:44.891Z,3.47
2019-02-28T15:33:15.809Z,3.67
2019-02-28T15:35:49.540Z,3.27
2019-02-28T15:38:18.714Z,4.20
2019-02-28T15:40:50.974Z,3.73
2019-02-28T15:43:21.374Z,3.67
2019-02-28T15:45:52.052Z,3.67
2019-02-28T15:48:22.713Z,3.30
2019-02-28T15:50:54.020Z,3.80
2019-02-28T15:53:24.469Z,4.40
2019-02-28T15:55:55.269Z,4.57
2019-02-28T15:58:25.671Z,4.00
2019-02-28T16:00:56.585Z,3.97
2019-02-28T16:03:28.187Z,4.27
2019-02-28T16:05:58.554Z,4.03
2019-02-28T16:08:29.004Z,3.87
2019-02-28T16:10:59.628Z,3.50
2019-02-28T16:13:30.488Z,3.13
2019-02-28T16:16:01.223Z,3.30
2019-02-28T16:18:31.938Z,3.10
2019-02-28T16:21:03.596Z,2.60
2019-02-28T16:23:34.757Z,2.90
2019-02-28T16:26:05.641Z,3.03
2019-02-28T16:28:36.270Z,3.33
2019-02-28T16:31:07.545Z,3.57
2019-02-28T16:33:38.012Z,3.20
2019-02-28T16:36:08.629Z,3.20
2019-02-28T16:38:38.947Z,3.37
2019-02-28T16:41:09.423Z,3.53
2019-02-28T16:43:52.350Z,3.27
2019-02-28T16:46:21.544Z,3.30
2019-02-28T16:48:52.798Z,2.97
2019-02-28T16:51:23.277Z,3.60
2019-02-28T16:53:53.639Z,3.40
2019-02-28T16:56:24.142Z,3.40
2019-02-28T16:58:57.283Z,3.20
2019-02-28T17:01:26.911Z,3.80
2019-02-28T17:03:57.980Z,3.60
2019-02-28T17:06:28.609Z,4.13
2019-02-28T17:09:13.231Z,3.83
2019-02-28T17:11:52.357Z,4.40
2019-02-28T17:14:23.055Z,3.70
2019-02-28T17:17:15.458Z,3.60
2019-02-28T17:19:45.807Z,4.23
2019-02-28T17:22:16.576Z,3.97
2019-02-28T17:24:47.001Z,3.67
2019-02-28T17:27:41.390Z,4.40
2019-02-28T17:30:19.536Z,3.62
2019-02-28T17:32:49.806Z,3.87
2019-02-28T17:35:20.222Z,3.40
2019-02-28T17:37:50.496Z,3.57
2019-02-28T17:40:23.144Z,3.63
2019-02-28T17:42:52.854Z,3.40
2019-02-28T17:45:32.058Z,4.43
2019-02-28T17:48:37.283Z,3.17
2019-02-28T17:51:28.311Z,3.30
2019-02-28T17:54:49.147Z,3.23
2019-02-28T17:57:58.659Z,3.20
2019-02-28T18:00:59.214Z,3.40
2019-02-28T18:04:04.615Z,4.50
2019-02-28T18:07:14.958Z,4.77
2019-02-28T18:10:31.990Z,3.93
2019-02-28T18:13:38.582Z,4.43
2019-02-28T18:16:37.491Z,4.10
2019-02-28T18:19:51.073Z,3.47
2019-02-28T18:25:29.618Z,4.20
2019-02-28T18:28:30.801Z,4.03
2019-02-28T18:31:14.751Z,5.03
2019-02-28T18:33:47.506Z,4.30
2019-02-28T18:36:19.692Z,5.23
2019-02-28T18:38:50.373Z,4.90
2019-02-28T18:41:21.327Z,5.00
2019-02-28T18:43:51.610Z,5.07
2019-02-28T18:46:21.904Z,5.10
2019-02-28T18:48:54.333Z,4.90
2019-02-28T18:51:24.929Z,5.13
2019-02-28T18:53:55.599Z,5.57
2019-02-28T18:56:25.825Z,4.80
2019-02-28T18:58:56.096Z,5.90
2019-02-28T19:01:26.693Z,6.07
2019-02-28T19:03:56.978Z,5.57
2019-02-28T19:06:27.346Z,5.73
2019-02-28T19:08:57.647Z,5.50
2019-02-28T19:11:28.035Z,5.90
2019-02-28T19:13:58.255Z,6.97
2019-02-28T19:16:28.880Z,6.53
2019-02-28T19:18:59.146Z,5.83
2019-02-28T19:21:29.677Z,6.20
2019-02-28T19:24:00.014Z,6.03
2019-02-28T19:26:30.230Z,5.80
2019-02-28T19:29:00.511Z,5.60
2019-02-28T19:31:30.741Z,6.07
2019-02-28T19:34:00.978Z,6.63
2019-02-28T19:36:31.183Z,6.83
2019-02-28T19:39:01.450Z,7.13
2019-02-28T19:41:32.458Z,6.70
2019-02-28T19:44:04.020Z,7.27
2019-02-28T19:46:34.295Z,6.80
2019-02-28T19:49:04.614Z,7.00
2019-02-28T19:51:34.891Z,7.90
2019-02-28T19:54:05.179Z,7.97
2019-02-28T19:56:36.276Z,8.57
2019-02-28T19:59:06.632Z,6.90
2019-02-28T20:01:36.988Z,7.80
2019-02-28T20:04:07.284Z,7.70
2019-02-28T20:06:37.695Z,7.60
2019-02-28T20:09:09.083Z,7.10
2019-02-28T20:11:39.809Z,7.27
2019-02-28T20:14:10.092Z,8.40
2019-02-28T20:16:40.564Z,8.10
2019-02-28T20:19:10.847Z,7.40
2019-02-28T20:21:41.165Z,7.93
2019-02-28T20:24:11.451Z,8.27
2019-02-28T20:26:41.743Z,8.63
2019-02-28T20:29:12.714Z,10.30
2019-02-28T20:31:43.013Z,9.90
2019-02-28T20:34:13.349Z,9.77
2019-02-28T20:36:43.669Z,8.97
2019-02-28T20:39:14.297Z,9.07
2019-02-28T20:41:44.580Z,8.37
2019-02-28T20:44:14.887Z,9.43
2019-02-28T20:46:45.603Z,9.73
2019-02-28T20:49:15.884Z,10.10
2019-02-28T20:51:54.886Z,10.03
2019-02-28T20:54:18.084Z,9.73
2019-02-28T20:56:48.289Z,11.23
2019-02-28T20:59:18.669Z,10.53
2019-02-28T21:01:48.983Z,11.70
2019-02-28T21:04:19.243Z,11.37
2019-02-28T21:06:49.527Z,12.30
2019-02-28T21:09:19.915Z,13.07
2019-02-28T21:11:50.122Z,0.10
2019-02-28T21:14:20.782Z,0.10
2019-02-28T21:16:51.684Z,0.30
2019-02-28T21:19:21.949Z,0.13
2019-02-28T21:21:52.223Z,0.10
2019-02-28T21:24:22.777Z,0.10
2019-02-28T21:26:53.457Z,0.10
2019-02-28T21:29:23.746Z,0.10
2019-02-28T21:31:54.090Z,0.10
2019-02-28T21:34:24.335Z,0.10
2019-02-28T21:36:54.666Z,0.10
2019-02-28T21:39:26.076Z,0.20
2019-02-28T21:41:56.409Z,0.10
2019-02-28T21:44:26.655Z,0.10
2019-02-28T21:46:56.901Z,0.10
2019-02-28T21:49:27.238Z,0.10
2019-02-28T21:51:57.535Z,0.10
2019-02-28T21:54:27.828Z,0.10
2019-02-28T21:56:58.049Z,0.10
2019-02-28T21:59:28.336Z,12.87
2019-02-28T22:01:58.871Z,13.63
2019-02-28T22:04:29.195Z,13.73
2019-02-28T22:06:59.458Z,15.00
2019-02-28T22:09:29.992Z,15.17
2019-02-28T22:12:00.239Z,14.73
2019-02-28T22:14:30.445Z,15.43
2019-02-28T22:17:00.995Z,14.80
2019-02-28T22:19:31.996Z,15.40
2019-02-28T22:22:02.223Z,14.93
2019-02-28T22:24:32.488Z,15.80
2019-02-28T22:27:03.130Z,15.50
2019-02-28T22:29:33.705Z,16.60
2019-02-28T22:32:32.347Z,16.57
2019-02-28T22:35:22.727Z,16.07
2019-02-28T22:37:53.670Z,15.97
2019-02-28T22:40:24.612Z,16.00
2019-02-28T22:42:54.837Z,15.43
2019-02-28T22:45:25.089Z,13.80
2019-02-28T22:47:55.331Z,14.83
2019-02-28T22:50:25.538Z,14.20
2019-02-28T22:52:56.453Z,13.30
2019-02-28T22:55:27.645Z,12.77
2019-02-28T22:57:58.607Z,12.30
2019-02-28T23:00:46.976Z,11.40
2019-02-28T23:03:17.202Z,11.73
2019-02-28T23:05:47.451Z,12.53
2019-02-28T23:08:17.672Z,12.23
2019-02-28T23:10:47.797Z,11.60
2019-02-28T23:13:17.934Z,11.80
2019-02-28T23:15:48.187Z,11.53
2019-02-28T23:18:18.349Z,11.07
2019-02-28T23:20:48.605Z,10.73
2019-02-28T23:23:18.828Z,11.53
2019-02-28T23:25:49.528Z,11.03
2019-02-28T23:28:34.013Z,11.00
2019-02-28T23:31:44.847Z,11.60
2019-02-28T23:34:23.373Z,11.77
2019-02-28T23:36:53.652Z,12.50
2019-02-28T23:39:23.918Z,12.93
2019-02-28T23:41:54.211Z,12.83
2019-02-28T23:44:24.357Z,12.77
2019-02-28T23:46:54.606Z,11.13
2019-02-28T23:49:25.138Z,12.07
2019-02-28T23:51:55.368Z,13.40
2019-02-28T23:54:25.492Z,11.57
2019-02-28T23:56:55.651Z,13.67
2019-02-28T23:59:26.408Z,14.00
